• Join FlightAware (Why Join?)
  • Login
  • US Flag 
06:41PM EDT


 

Airport Tracker/Info


-or-


 

Live Flight TrackerFlight Track Log ✈ EJA831 ✈ 30-Apr-2013 ✈ KFDY - KMMU

Flight Track Log - Related Links

Times and Time Zones

All times are in EDT time to prevent confusion due to time zone crossing. See the EJA831 flight status page for this flight to view local times or setup timezone preferences in your user account.

Time Position Orientation Groundspeed Altitude Reporting Facility
EDT Latitude Longitude Course Direction KTS MPH feet Rate Location/Type
09:32PM 41.0117 -83.5828 77° East 212 244 4,900  Level Cleveland Center
09:33PM 41.0303 -83.5036 73° East 249 287 8,200 3,060 Climbing Cleveland Center
09:34PM 41.0558 -83.4028 71° East 268 308 11,100 3,060 Climbing Cleveland Center
09:35PM 41.0814 -83.2992 72° East 283 326 14,400 3,000 Climbing Cleveland Center
09:36PM 41.1047 -83.1928 74° East 289 333 17,100 2,520 Climbing Cleveland Center
09:37PM 41.1606 -82.9764 73° East  Level FlightAware Approximate
09:37PM 41.1364 -83.0756 70° East 316 364 19,500  Level Cleveland Center
09:38PM 41.1960 -82.8407 77° East  Level FlightAware Approximate
09:38PM 41.1661 -82.9525 72° East 330 380 22,100  Level Cleveland Center
09:39PM 41.1958 -82.8294 72° East 342 394 24,100 1,920 Climbing Cleveland Center
09:40PM 41.2192 -82.6978 77° East 359 413 26,000 1,920 Climbing Cleveland Center
09:41PM 41.2425 -82.5575 77° East 372 428 28,000 2,220 Climbing Cleveland Center
09:42PM 41.2636 -82.4228 78° East 372 428 30,500 2,400 Climbing Cleveland Center
09:43PM 41.2822 -82.2936 79° East 372 428 32,900 1,200 Climbing Cleveland Center
09:44PM 41.3028 -82.1586 78° East 367 422 33,000  Climbing Cleveland Center
09:45PM 41.3278 -82.0044 78° East 396 456 33,000  Level Cleveland Center
09:46PM 41.3506 -81.8500 79° East 412 474 33,000  Level Cleveland Center
09:47PM 41.3750 -81.6956 78° East 417 480 33,000  Level Cleveland Center
09:48PM 41.3953 -81.5381 80° East 422 486 33,000  Level Cleveland Center
09:49PM 41.4172 -81.3861 79° East 428 493 33,000  Level Cleveland Center
09:50PM 41.4369 -81.2311 80° East 428 493 33,000  Level Cleveland Center
09:51PM 41.4586 -81.0792 79° East 428 493 33,000  Level Cleveland Center
09:52PM 41.4822 -80.9242 78° East 428 493 33,000  Level Cleveland Center
09:53PM 41.5033 -80.7661 80° East 433 498 33,000  Level Cleveland Center
09:54PM 41.5222 -80.6275 80° East 427 491 33,000  Level Cleveland Center
09:55PM 41.5431 -80.4722 80° East 427 491 33,000  Level Cleveland Center
09:56PM 41.5658 -80.3194 79° East 422 486 33,000  Level Cleveland Center
09:57PM 41.5881 -80.1639 79° East 422 486 33,000  Level Cleveland Center
09:58PM 41.6083 -80.0056 80° East 427 491 33,000  Level Cleveland Center
09:59PM 41.6242 -79.8525 82° East 427 491 33,000  Level Cleveland Center
10:00PM 41.6292 -79.6914 88° East 427 491 33,000  Level Cleveland Center
10:01PM 41.6342 -79.5303 88° East 427 491 33,000  Level Cleveland Center
10:02PM 41.6389 -79.3689 88° East 427 491 33,000  Level Cleveland Center
10:03PM 41.6433 -79.2078 88° East 427 491 33,000  Level Cleveland Center
10:04PM 41.6475 -79.0464 88° East 427 491 33,000  Level Cleveland Center
10:05PM 41.6514 -78.8853 88° East 427 491 33,000  Level Cleveland Center
10:06PM 41.6553 -78.7239 88° East 427 491 33,000  Level Cleveland Center
10:07PM 41.6586 -78.5597 88° East 427 491 33,000  Level Cleveland Center
10:08PM 41.6619 -78.3958 88° East 427 491 33,000  Level Cleveland Center
10:09PM 41.6650 -78.2344 88° East 432 497 33,000  Level Cleveland Center
10:10PM 41.6683 -78.0606 88° East 430 495 33,000  Level New York Center
10:12PM 41.6681 -77.9051 90° East  Level FlightAware Approximate
10:12PM 41.6731 -77.7389 90° East 430 495 33,000  Level New York Center
10:13PM 41.6742 -77.5806 89° East 430 495 33,000  Level New York Center
10:14PM 41.6767 -77.4225 89° East 430 495 33,000 -600 Level New York Center
10:15PM 41.6789 -77.2700 89° East 419 482 31,900 -1,440 Descending New York Center
10:17PM 41.6568 -77.1125 109° East  Level FlightAware Approximate
10:17PM 41.6269 -76.9567 109° East 428 493 28,700  Level New York Center
10:18PM 41.5847 -76.8058 110° East 433 498 27,100 -1,560 Descending New York Center
10:19PM 41.5431 -76.6414 109° East 433 498 25,700 -1,560 Descending New York Center
10:20PM 41.4981 -76.4961 112° Southeast 428 493 24,000 -900 Descending New York Center
10:21PM 41.4592 -76.3489 109° East 422 486 24,000  Level New York Center
10:22PM 41.4203 -76.1989 109° East 422 486 24,000 -240 Level New York Center
10:23PM 41.3767 -76.0544 112° Southeast 422 486 23,600 -1,140 Descending New York Center
10:24PM 41.3406 -75.9328 112° Southeast 416 479 21,800 -2,040 Descending New York Center
10:25PM 41.3006 -75.7972 111° Southeast 399 459 19,600 -2,220 Descending New York Center
10:26PM 41.2606 -75.6533 110° East 393 452 17,400 -2,100 Descending New York Center
10:27PM 41.2253 -75.5489 114° Southeast 356 410 15,400 -1,980 Descending New York Center
10:28PM 41.1844 -75.4244 114° Southeast 356 410 13,500 -2,100 Descending New York Center
10:29PM 41.1414 -75.2978 114° Southeast 343 395 11,300 -1,860 Descending New York Center
10:30PM 41.1078 -75.1964 114° Southeast 326 375 9,800 -1,500 Descending New York Center
10:31PM 41.0758 -75.1033 114° Southeast 287 330 8,300 -1,500 Descending New York Center
10:32PM 41.0497 -75.0219 113° Southeast 269 310 6,800 -1,200 Descending New York Center
10:33PM 41.0489 -74.9228 91° East 247 284 6,000 -420 Descending New York Center
10:34PM 41.0503 -74.8294 89° East 247 284 6,000 -240 Level New York Center
10:35PM 41.0428 -74.7436 97° East 252 290 5,600 -960 Descending New York Center
10:36PM 41.0294 -74.6439 100° East 257 296 4,100 -840 Descending New York Center
10:37PM 41.0214 -74.5692 98° East 244 281 4,000 -300 Descending New York Center
10:38PM 41.0097 -74.4750 99° East 238 274 3,500 -540 Descending New York Center
10:39PM 40.9997 -74.3947 99° East 238 274 3,000 -300 Descending New York Center
10:40PM 40.9667 -74.3000 115° Southeast 230 265 3,000 -540 Level New York TRACON
10:41PM 40.9167 -74.3000 180° South 199 229 2,000 -540 Descending New York TRACON
10:42PM 40.8833 -74.3333 217° Southwest 165 190 2,000 -480 Level New York TRACON
10:43PM 40.8500 -74.3667 217° Southwest 148 170 1,200 -540 Descending New York TRACON
10:44PM 40.8167 -74.4000 217° Southwest 131 151 1,000 5,520 Descending New York TRACON
10:46PM 40.7394 -74.4603 211° Southwest 158 182 18,000 8,760 Climbing New York Center